createdAt,value
2023-02-23T00:04:47.978Z,97530.81
2023-02-23T00:09:50.727Z,97525.03
2023-02-23T00:14:52.219Z,97528.69
2023-02-23T00:19:54.617Z,97520.25
2023-02-23T00:24:57.403Z,97523.88
2023-02-23T00:29:58.811Z,97517.94
2023-02-23T00:35:00.251Z,97522.22
2023-02-23T00:40:03.849Z,97523.06
2023-02-23T00:45:10.787Z,97515.28
2023-02-23T00:50:14.903Z,97516.25
2023-02-23T00:55:16.439Z,97520.59
2023-02-23T01:00:20.293Z,97528.22
2023-02-23T01:05:22.596Z,97527.00
2023-02-23T01:10:24.334Z,97514.56
2023-02-23T01:15:27.539Z,97515.22
2023-02-23T01:20:29.014Z,97514.88
2023-02-23T01:25:30.562Z,97512.41
2023-02-23T01:30:35.129Z,97509.91
2023-02-23T01:35:36.747Z,97508.06
2023-02-23T01:40:39.205Z,97501.56
2023-02-23T01:45:45.910Z,97494.25
2023-02-23T01:50:50.392Z,97486.28
2023-02-23T01:55:55.559Z,97489.59
2023-02-23T02:01:02.432Z,97478.97
2023-02-23T02:06:05.492Z,97478.97
2023-02-23T02:11:25.685Z,97474.47
2023-02-23T02:16:50.365Z,97462.66
2023-02-23T02:22:15.981Z,97459.81
2023-02-23T02:28:08.950Z,97461.66
2023-02-23T02:33:26.566Z,97457.16
2023-02-23T02:38:30.932Z,97465.59
2023-02-23T02:43:35.642Z,97454.00
2023-02-23T02:49:01.503Z,97454.16
2023-02-23T02:54:35.136Z,97445.50
2023-02-23T03:00:04.629Z,97442.22
2023-02-23T03:05:36.729Z,97436.09
2023-02-23T03:11:17.024Z,97444.41
2023-02-23T03:16:47.315Z,97434.97
2023-02-23T03:22:07.512Z,97441.25
2023-02-23T03:27:42.111Z,97429.81
2023-02-23T03:33:16.178Z,97436.94
2023-02-23T03:38:45.459Z,97437.97
2023-02-23T03:44:13.466Z,97445.63
2023-02-23T03:49:37.389Z,97444.97
2023-02-23T03:55:02.447Z,97440.16
2023-02-23T04:00:31.523Z,97448.13
2023-02-23T04:05:55.774Z,97445.47
2023-02-23T04:11:27.873Z,97443.63
2023-02-23T04:16:31.850Z,97449.94
2023-02-23T04:21:33.423Z,97457.44
2023-02-23T04:26:34.922Z,97463.09
2023-02-23T04:31:36.413Z,97459.16
2023-02-23T04:36:38.062Z,97447.22
2023-02-23T04:41:39.452Z,97451.88
2023-02-23T04:46:40.867Z,97457.50
2023-02-23T04:51:42.277Z,97452.53
2023-02-23T04:56:43.666Z,97452.88
2023-02-23T05:01:45.151Z,97455.88
2023-02-23T05:06:46.599Z,97460.53
2023-02-23T05:11:48.037Z,97450.25
2023-02-23T05:16:49.719Z,97457.94
2023-02-23T05:21:51.250Z,97460.28
2023-02-23T05:26:53.757Z,97456.97
2023-02-23T05:31:55.244Z,97459.97
2023-02-23T05:36:56.831Z,97464.00
2023-02-23T05:41:58.232Z,97467.69
2023-02-23T05:46:59.889Z,97465.72
2023-02-23T05:52:01.319Z,97460.28
2023-02-23T05:57:02.752Z,97459.59
2023-02-23T06:02:07.117Z,97465.28
2023-02-23T06:07:08.509Z,97469.44
2023-02-23T06:12:10.017Z,97483.03
2023-02-23T06:17:11.504Z,97495.59
2023-02-23T06:22:13.139Z,97485.44
2023-02-23T06:27:14.562Z,97485.75
2023-02-23T06:32:16.141Z,97481.38
2023-02-23T06:37:22.151Z,97488.31
2023-02-23T06:42:23.629Z,97488.44
2023-02-23T06:47:25.530Z,97491.03
2023-02-23T06:52:26.918Z,97487.91
2023-02-23T06:57:28.400Z,97504.09
2023-02-23T07:02:29.972Z,97496.56
2023-02-23T07:07:32.821Z,97497.16
2023-02-23T07:12:34.270Z,97499.91
2023-02-23T07:17:36.348Z,97500.59
2023-02-23T07:22:39.829Z,97500.84
2023-02-23T07:27:42.167Z,97497.75
2023-02-23T07:32:43.647Z,97496.97
2023-02-23T07:37:45.169Z,97508.47
2023-02-23T07:42:46.590Z,97508.38
2023-02-23T07:47:49.219Z,97513.91
2023-02-23T07:52:51.339Z,97507.97
2023-02-23T07:57:53.076Z,97513.81
2023-02-23T08:02:54.534Z,97512.28
2023-02-23T08:07:57.746Z,97518.22
2023-02-23T08:12:59.999Z,97519.25
2023-02-23T08:18:01.470Z,97520.53
2023-02-23T08:23:02.942Z,97525.44
2023-02-23T08:28:06.713Z,97521.66
2023-02-23T08:33:08.225Z,97522.00
2023-02-23T08:38:09.646Z,97525.84
2023-02-23T08:43:11.073Z,97524.16
2023-02-23T08:48:12.722Z,97524.56
2023-02-23T08:53:14.194Z,97522.31
2023-02-23T08:58:15.906Z,97520.00
2023-02-23T09:03:17.741Z,97524.44
2023-02-23T09:08:19.810Z,97515.28
2023-02-23T09:13:21.247Z,97528.09
2023-02-23T09:18:23.969Z,97530.25
2023-02-23T09:23:28.303Z,97516.41
2023-02-23T09:28:31.161Z,97529.16
2023-02-23T09:33:32.831Z,97531.53
2023-02-23T09:38:34.548Z,97527.16
2023-02-23T09:43:42.373Z,97530.53
2023-02-23T09:48:43.941Z,97529.34
2023-02-23T09:53:55.225Z,97528.53
2023-02-23T09:58:56.798Z,97526.28
2023-02-23T10:04:10.915Z,97529.78
2023-02-23T10:09:24.521Z,97528.97
2023-02-23T10:14:32.195Z,97524.25
2023-02-23T10:20:24.837Z,97527.72
2023-02-23T10:25:30.666Z,97526.91
2023-02-23T10:30:34.391Z,97521.13
2023-02-23T10:35:38.167Z,97522.59
2023-02-23T10:40:41.207Z,97515.78
2023-02-23T10:45:48.820Z,97522.16
2023-02-23T10:50:55.138Z,97529.13
2023-02-23T10:56:17.606Z,97511.78
2023-02-23T11:01:41.826Z,97510.28
2023-02-23T11:06:45.775Z,97504.13
2023-02-23T11:12:12.094Z,97500.03
2023-02-23T11:17:34.796Z,97493.44
2023-02-23T11:22:40.621Z,97499.84
2023-02-23T11:27:51.215Z,97493.44
2023-02-23T11:32:56.333Z,97492.59
2023-02-23T11:37:58.095Z,97488.25
2023-02-23T11:43:07.152Z,97477.75
2023-02-23T11:48:23.146Z,97481.25
2023-02-23T11:53:30.365Z,97475.28
2023-02-23T11:58:49.660Z,97464.34
2023-02-23T12:03:57.154Z,97458.75
2023-02-23T12:09:12.939Z,97470.72
2023-02-23T12:14:29.440Z,97462.25
2023-02-23T12:19:40.893Z,97454.38
2023-02-23T12:24:49.832Z,97450.91
2023-02-23T12:29:57.430Z,97444.72
2023-02-23T12:35:06.026Z,97440.34
2023-02-23T12:40:16.531Z,97440.75
2023-02-23T12:45:43.116Z,97443.59
2023-02-23T12:50:53.059Z,97438.22
2023-02-23T12:56:14.697Z,97440.47
2023-02-23T13:01:34.536Z,97432.78
2023-02-23T13:06:54.422Z,97433.19
2023-02-23T13:12:22.053Z,97430.16
2023-02-23T13:17:41.094Z,97428.06
2023-02-23T13:22:49.414Z,97424.84
2023-02-23T13:28:00.060Z,97416.09
2023-02-23T13:33:08.202Z,97420.47
2023-02-23T13:38:20.134Z,97431.22
2023-02-23T13:43:33.535Z,97421.56
2023-02-23T13:49:02.140Z,97422.59
2023-02-23T13:54:06.537Z,97427.56
2023-02-23T13:59:16.365Z,97421.81
2023-02-23T14:04:34.084Z,97418.50
2023-02-23T14:09:54.432Z,97418.72
2023-02-23T14:14:55.975Z,97419.75
2023-02-23T14:20:00.281Z,97422.81
2023-02-23T14:25:43.943Z,97416.84
2023-02-23T14:30:51.008Z,97416.84
2023-02-23T14:35:54.365Z,97418.06
2023-02-23T14:40:56.086Z,97415.56
2023-02-23T14:45:58.945Z,97415.56
2023-02-23T14:51:42.294Z,97414.31
2023-02-23T14:56:49.684Z,97415.13
2023-02-23T15:01:51.919Z,97406.88
2023-02-23T15:06:57.494Z,97410.59
2023-02-23T15:12:02.893Z,97409.16
2023-02-23T15:17:05.312Z,97401.56
2023-02-23T15:22:07.425Z,97409.38
2023-02-23T15:27:22.655Z,97396.59
2023-02-23T15:32:26.245Z,97399.91
2023-02-23T15:37:34.861Z,97395.75
2023-02-23T15:42:39.707Z,97398.22
2023-02-23T15:47:42.711Z,97392.84
2023-02-23T15:52:49.103Z,97399.63
2023-02-23T15:57:59.478Z,97401.06
2023-02-23T16:03:03.042Z,97413.00
2023-02-23T16:08:22.820Z,97415.03
2023-02-23T16:13:24.636Z,97418.09
2023-02-23T16:18:36.515Z,97409.25
2023-02-23T16:23:44.542Z,97401.00
2023-02-23T16:28:46.670Z,97405.94
2023-02-23T16:33:56.707Z,97399.34
2023-02-23T16:39:01.598Z,97408.38
2023-02-23T16:44:06.000Z,97394.81
2023-02-23T16:49:12.085Z,97397.91
2023-02-23T16:54:13.550Z,97407.16
2023-02-23T16:59:17.681Z,97405.13
2023-02-23T17:04:20.789Z,97406.78
2023-02-23T17:09:22.281Z,97408.84
2023-02-23T17:14:27.987Z,97412.13
2023-02-23T17:19:29.492Z,97409.66
2023-02-23T17:24:30.925Z,97415.00
2023-02-23T17:29:32.554Z,97418.91
2023-02-23T17:34:34.146Z,97424.63
2023-02-23T17:39:37.324Z,97420.91
2023-02-23T17:44:39.078Z,97436.53
2023-02-23T17:49:40.503Z,97423.94
2023-02-23T17:54:41.925Z,97425.13
2023-02-23T17:59:43.638Z,97411.69
2023-02-23T18:04:45.322Z,97408.19
2023-02-23T18:09:49.928Z,97422.16
2023-02-23T18:14:51.517Z,97414.34
2023-02-23T18:19:53.068Z,97399.53
2023-02-23T18:24:56.141Z,97407.91
2023-02-23T18:29:58.707Z,97408.44
2023-02-23T18:35:00.150Z,97407.59
2023-02-23T18:40:01.609Z,97407.53
2023-02-23T18:45:03.594Z,97394.41
2023-02-23T18:50:05.533Z,97398.31
2023-02-23T18:55:08.769Z,97394.84
2023-02-23T19:00:14.772Z,97395.66
2023-02-23T19:05:18.486Z,97393.16
2023-02-23T19:10:21.625Z,97391.53
2023-02-23T19:15:23.229Z,97389.88
2023-02-23T19:20:27.005Z,97400.13
2023-02-23T19:25:28.872Z,97388.19
2023-02-23T19:30:30.333Z,97391.00
2023-02-23T19:35:31.888Z,97389.88
2023-02-23T19:40:36.797Z,97389.19
2023-02-23T19:45:46.013Z,97372.31
2023-02-23T19:50:49.600Z,97374.53
2023-02-23T19:56:02.103Z,97369.56
2023-02-23T20:01:08.758Z,97369.34
2023-02-23T20:06:15.642Z,97364.38
2023-02-23T20:11:17.160Z,97370.09
2023-02-23T20:16:19.491Z,97368.47
2023-02-23T20:21:24.862Z,97364.13
2023-02-23T20:26:30.512Z,97363.50
2023-02-23T20:31:35.422Z,97356.28
2023-02-23T20:36:37.216Z,97358.69
2023-02-23T20:41:43.918Z,97362.75
2023-02-23T20:46:45.472Z,97347.38
2023-02-23T20:51:48.467Z,97345.34
2023-02-23T20:56:58.889Z,97345.34
2023-02-23T21:02:01.531Z,97337.91
2023-02-23T21:07:07.774Z,97338.09
2023-02-23T21:12:10.325Z,97341.22
2023-02-23T21:17:12.096Z,97338.56
2023-02-23T21:22:16.316Z,97341.44
2023-02-23T21:27:17.816Z,97336.84
2023-02-23T21:32:19.747Z,97336.16
2023-02-23T21:37:21.536Z,97324.28
2023-02-23T21:42:24.079Z,97326.03
2023-02-23T21:47:25.777Z,97330.56
2023-02-23T21:52:27.450Z,97312.09
2023-02-23T21:57:33.393Z,97309.28
2023-02-23T22:02:37.482Z,97319.41
2023-02-23T22:07:39.281Z,97310.72
2023-02-23T22:12:40.734Z,97332.38
2023-02-23T22:17:43.452Z,97322.38
2023-02-23T22:22:46.126Z,97319.06
2023-02-23T22:27:47.864Z,97324.88
2023-02-23T22:32:49.653Z,97329.81
2023-02-23T22:37:51.178Z,97314.03
2023-02-23T22:42:54.475Z,97311.28
2023-02-23T22:48:01.306Z,97305.22
2023-02-23T22:53:03.609Z,97303.84
2023-02-23T22:58:08.895Z,97297.91
2023-02-23T23:03:10.317Z,97293.69
2023-02-23T23:08:13.348Z,97299.28
2023-02-23T23:13:14.783Z,97299.53
2023-02-23T23:18:20.623Z,97302.75
2023-02-23T23:23:25.908Z,97300.25
2023-02-23T23:28:28.474Z,97297.94
2023-02-23T23:33:30.455Z,97291.09
2023-02-23T23:38:32.815Z,97284.00
2023-02-23T23:43:36.848Z,97270.91
2023-02-23T23:48:39.162Z,97272.91
2023-02-23T23:53:40.560Z,97252.66
2023-02-23T23:58:41.950Z,97261.72
